Time;durP1;ratioP1;P1;durP2;ratioP2;P2;SDS_P1;SDS_P2;PMS_P1;PMS_P2;Temp;Humidity;BMP_temperature;BMP_pressure;BME280_temperature;BME280_humidity;BME280_pressure;Samples;Min_cycle;Max_cycle;Signal;HPM_P1;HPM_P2
2022/08/20 00:00:17;;;;;;;932.75;870.38;;;;;;;24.30;66.39;100718.75;689975;28;22404;-64
2022/08/20 00:00:41;;;;;;;932.17;869.83;;;;;;;24.25;66.28;100711.28;687381;28;93162;-64
2022/08/20 00:01:04;;;;;;;950.22;887.25;;;;;;;24.29;65.90;100709.66;686071;28;113534;-64
2022/08/20 00:01:25;;;;;;;935.70;873.28;;;;;;;24.31;65.99;100714.06;689220;28;46323;-64
2022/08/20 00:01:46;;;;;;;931.80;869.50;;;;;;;24.31;65.99;100714.91;689303;28;23387;-64
2022/08/20 00:02:09;;;;;;;935.47;873.00;;;;;;;24.30;66.27;100716.00;689887;28;21461;-64
2022/08/20 00:02:38;;;;;;;916.08;854.33;;;;;;;24.32;66.08;100722.06;688377;28;69400;-64
2022/08/20 00:03:01;;;;;;;929.13;866.80;;;;;;;24.33;66.04;100715.47;685721;28;137875;-64
2022/08/20 00:03:26;;;;;;;936.28;873.78;;;;;;;24.35;66.22;100717.97;688339;28;69432;-64
2022/08/20 00:03:47;;;;;;;946.47;883.70;;;;;;;24.34;65.94;100722.66;686697;28;114421;-64
2022/08/20 00:04:09;;;;;;;952.38;889.35;;;;;;;24.36;66.33;100731.50;689127;28;45276;-64
2022/08/20 00:04:30;;;;;;;929.97;867.72;;;;;;;24.37;65.92;100718.50;689891;28;23408;-64
2022/08/20 00:04:52;;;;;;;964.45;901.08;;;;;;;24.38;65.87;100732.03;689843;28;22150;-64
2022/08/20 00:05:14;;;;;;;958.55;895.25;;;;;;;24.39;66.23;100725.44;688830;28;45241;-64
2022/08/20 00:05:38;;;;;;;955.25;892.15;;;;;;;24.39;65.67;100724.56;686474;28;45061;-64
2022/08/20 00:06:01;;;;;;;945.25;882.53;;;;;;;24.39;65.91;100730.94;684795;28;92153;-64
2022/08/20 00:06:24;;;;;;;974.60;910.80;;;;;;;24.38;66.11;100723.75;685450;28;69411;-64
2022/08/20 00:06:45;;;;;;;942.65;879.97;;;;;;;24.40;66.00;100734.53;684980;28;70303;-64
2022/08/20 00:07:06;;;;;;;934.38;871.88;;;;;;;24.40;65.60;100726.25;688614;28;24351;-64
2022/08/20 00:07:28;;;;;;;906.92;845.38;;;;;;;24.39;65.50;100730.94;690481;28;1078;-64
2022/08/20 00:07:50;;;;;;;892.10;831.10;;;;;;;24.39;66.03;100732.84;689122;28;45409;-64
2022/08/20 00:08:12;;;;;;;906.35;844.88;;;;;;;24.39;65.57;100738.38;689870;28;22237;-64
2022/08/20 00:08:34;;;;;;;925.38;863.40;;;;;;;24.39;65.83;100738.38;688270;28;69386;-64
2022/08/20 00:08:56;;;;;;;952.85;889.92;;;;;;;24.38;65.75;100731.22;689623;28;23420;-64
2022/08/20 00:09:17;;;;;;;935.17;872.78;;;;;;;24.38;66.05;100733.97;688042;28;69284;-64
2022/08/20 00:09:41;;;;;;;934.63;872.28;;;;;;;24.35;66.08;100732.56;689967;28;22235;-64
2022/08/20 00:10:05;;;;;;;923.47;861.50;;;;;;;24.38;66.10;100739.50;687359;28;93063;-64
2022/08/20 00:10:28;;;;;;;926.25;864.20;;;;;;;24.39;66.06;100743.91;687525;28;92047;-64
2022/08/20 00:10:52;;;;;;;916.63;854.80;;;;;;;24.37;65.57;100737.81;687906;28;67506;-64
2022/08/20 00:11:16;;;;;;;917.88;856.10;;;;;;;24.36;65.65;100742.53;687620;28;92050;-64
2022/08/20 00:11:37;;;;;;;920.63;858.63;;;;;;;24.35;65.85;100738.09;686567;28;115112;-64
2022/08/20 00:12:00;;;;;;;922.10;860.08;;;;;;;24.34;65.56;100735.59;686596;28;23468;-64
2022/08/20 00:12:21;;;;;;;923.03;861.05;;;;;;;24.34;65.89;100741.13;685708;28;67488;-64
2022/08/20 00:12:45;;;;;;;922.55;860.63;;;;;;;24.33;65.60;100739.47;687048;28;22327;-64
2022/08/20 00:13:09;;;;;;;917.97;856.13;;;;;;;24.33;65.91;100739.47;682150;28;92145;-64
2022/08/20 00:13:35;;;;;;;926.05;864.05;;;;;;;24.30;66.05;100735.31;682176;28;92270;-64
2022/08/20 00:13:58;;;;;;;911.83;850.20;;;;;;;24.29;65.80;100736.41;680659;28;137614;-64
2022/08/20 00:14:21;;;;;;;883.58;822.95;;;;;;;24.26;65.62;100731.44;683062;28;68505;-65
2022/08/20 00:14:42;;;;;;;916.37;854.63;;;;;;;24.26;66.02;100739.72;682967;28;70560;-64
2022/08/20 00:15:04;;;;;;;932.30;870.00;;;;;;;24.26;66.18;100734.19;683791;28;44370;-67
2022/08/20 00:15:29;;;;;;;940.85;878.35;;;;;;;24.24;66.29;100739.97;683716;28;46321;-64
2022/08/20 00:15:51;;;;;;;941.92;879.28;;;;;;;24.18;66.17;100730.00;681113;28;113396;-64
2022/08/20 00:16:13;;;;;;;939.40;876.83;;;;;;;24.21;65.78;100739.69;683732;28;44151;-64
2022/08/20 00:16:44;;;;;;;915.13;853.50;;;;;;;24.23;65.80;100743.00;682038;28;98690;-64
2022/08/20 00:17:06;;;;;;;931.13;868.80;;;;;;;24.22;66.07;100738.59;686947;28;22418;-64
2022/08/20 00:17:31;;;;;;;925.45;863.45;;;;;;;24.22;66.35;100744.13;687121;28;22370;-64
2022/08/20 00:17:53;;;;;;;931.90;869.70;;;;;;;24.22;65.97;100741.38;685947;28;61519;-64
2022/08/20 00:18:14;;;;;;;925.95;863.88;;;;;;;24.19;66.22;100742.72;687081;28;21524;-64
2022/08/20 00:18:36;;;;;;;934.03;871.63;;;;;;;24.19;66.01;100742.72;686269;28;46529;-64
2022/08/20 00:18:58;;;;;;;931.25;869.03;;;;;;;24.18;66.20;100741.06;687180;28;22353;-64
2022/08/20 00:19:19;;;;;;;924.63;862.55;;;;;;;24.16;66.06;100739.69;685652;28;69474;-64
2022/08/20 00:19:41;;;;;;;924.67;862.67;;;;;;;24.17;66.46;100747.69;687114;28;22417;-64
2022/08/20 00:20:03;;;;;;;927.88;865.78;;;;;;;24.16;66.38;100746.00;687323;28;22168;-64
2022/08/20 00:20:29;;;;;;;901.60;840.33;;;;;;;24.16;66.33;100748.78;685609;28;69420;-64
2022/08/20 00:20:55;;;;;;;925.03;862.95;;;;;;;24.16;66.31;100753.47;683269;28;136196;-64
2022/08/20 00:21:18;;;;;;;925.97;863.85;;;;;;;24.15;66.73;100749.88;685644;28;69211;-64
2022/08/20 00:21:40;;;;;;;939.05;876.58;;;;;;;24.15;66.33;100752.63;686498;28;46392;-64
2022/08/20 00:22:01;;;;;;;937.67;875.17;;;;;;;24.14;66.44;100750.13;684120;28;89214;-64
2022/08/20 00:22:22;;;;;;;911.72;850.08;;;;;;;24.14;66.95;100750.13;686516;28;44444;-64
2022/08/20 00:22:44;;;;;;;936.53;874.13;;;;;;;24.10;66.33;100747.09;687275;28;22403;-64
2022/08/20 00:23:05;;;;;;;969.58;906.00;;;;;;;24.14;66.62;100761.16;686948;28;23849;-64
2022/08/20 00:23:27;;;;;;;948.13;885.33;;;;;;;24.13;66.60;100754.00;686527;28;44092;-64
2022/08/20 00:23:51;;;;;;;964.15;900.85;;;;;;;24.14;66.79;100755.66;686315;28;45046;-64
2022/08/20 00:24:13;;;;;;;927.83;865.78;;;;;;;24.13;66.61;100756.75;685316;28;69432;-64
2022/08/20 00:24:34;;;;;;;921.70;859.85;;;;;;;24.12;66.42;100747.63;685464;28;69403;-64
2022/08/20 00:24:57;;;;;;;919.05;857.28;;;;;;;24.13;66.78;100745.72;686885;28;22115;-64
2022/08/20 00:25:18;;;;;;;920.58;858.67;;;;;;;24.13;66.46;100752.06;686061;28;46327;-64
2022/08/20 00:25:41;;;;;;;925.17;863.13;;;;;;;24.14;66.67;100747.38;686265;28;45679;-64
2022/08/20 00:26:03;;;;;;;921.22;859.30;;;;;;;24.10;66.56;100742.38;686176;28;46369;-64
2022/08/20 00:26:25;;;;;;;926.75;864.60;;;;;;;24.11;66.45;100746.00;686282;28;45324;-64
2022/08/20 00:26:47;;;;;;;940.60;878.13;;;;;;;24.13;66.43;100742.97;684980;28;69519;-64
2022/08/20 00:27:08;;;;;;;924.20;862.15;;;;;;;24.14;66.53;100744.59;686698;28;22372;-64
2022/08/20 00:27:29;;;;;;;916.45;854.67;;;;;;;24.13;66.54;100741.03;687197;28;22444;-64
2022/08/20 00:27:50;;;;;;;916.63;854.83;;;;;;;24.14;67.01;100744.59;686015;28;46280;-64
2022/08/20 00:28:13;;;;;;;943.50;880.85;;;;;;;24.10;66.85;100739.63;687025;28;22582;-64
2022/08/20 00:28:34;;;;;;;915.08;853.40;;;;;;;24.14;66.60;100744.59;685399;28;69405;-64
2022/08/20 00:28:56;;;;;;;903.15;841.88;;;;;;;24.13;67.04;100740.22;687072;28;22441;-64
2022/08/20 00:29:17;;;;;;;944.55;881.90;;;;;;;24.15;67.17;100740.75;687020;28;23527;-64
2022/08/20 00:29:39;;;;;;;962.97;899.67;;;;;;;24.16;66.57;100740.50;686894;28;23470;-64
2022/08/20 00:30:01;;;;;;;951.58;888.67;;;;;;;24.16;67.25;100736.91;687668;28;891;-64
2022/08/20 00:30:22;;;;;;;964.30;901.00;;;;;;;24.15;66.77;100733.31;687284;28;23892;-64
2022/08/20 00:30:45;;;;;;;928.45;866.33;;;;;;;24.17;66.63;100733.88;686454;28;44370;-64
2022/08/20 00:31:10;;;;;;;932.88;870.58;;;;;;;24.18;67.02;100743.00;685522;28;67532;-64
2022/08/20 00:31:32;;;;;;;945.15;882.45;;;;;;;24.18;66.43;100743.00;683252;28;137844;-64
2022/08/20 00:31:53;;;;;;;953.38;890.30;;;;;;;24.17;66.86;100742.16;686513;28;21293;-64
2022/08/20 00:32:14;;;;;;;927.47;865.25;;;;;;;24.17;66.79;100747.69;686943;28;22458;-64
2022/08/20 00:32:42;;;;;;;927.97;865.67;;;;;;;24.17;67.07;100744.06;686493;28;44384;-64
2022/08/20 00:33:06;;;;;;;956.95;893.80;;;;;;;24.18;66.71;100743.81;683282;28;136592;-64
2022/08/20 00:33:27;;;;;;;931.38;869.13;;;;;;;24.17;67.00;100741.31;684108;28;115072;-64
2022/08/20 00:33:49;;;;;;;922.55;860.65;;;;;;;24.17;66.46;100749.59;687197;28;22363;-64
2022/08/20 00:34:10;;;;;;;916.13;854.42;;;;;;;24.18;66.55;100743.00;687342;28;23435;-64
2022/08/20 00:34:31;;;;;;;921.17;859.28;;;;;;;24.18;66.81;100745.75;686464;28;44392;-64
2022/08/20 00:34:54;;;;;;;925.67;863.58;;;;;;;24.18;66.93;100741.06;687249;28;22394;-64
2022/08/20 00:35:16;;;;;;;916.63;854.90;;;;;;;24.18;66.47;100741.06;686270;28;46423;-64
2022/08/20 00:35:40;;;;;;;915.47;853.78;;;;;;;24.18;66.60;100737.47;686404;28;46240;-64
2022/08/20 00:36:05;;;;;;;914.33;852.70;;;;;;;24.18;66.71;100738.28;684085;28;115124;-64
2022/08/20 00:36:28;;;;;;;913.35;851.75;;;;;;;24.18;67.00;100740.22;683709;28;115184;-64
2022/08/20 00:36:49;;;;;;;921.67;859.78;;;;;;;24.18;66.90;100743.00;685673;28;45268;-64
2022/08/20 00:37:10;;;;;;;915.70;853.88;;;;;;;24.17;66.97;100739.41;686662;28;21641;-64
2022/08/20 00:37:31;;;;;;;892.08;831.05;;;;;;;24.14;66.81;100736.34;687142;28;22368;-64
2022/08/20 00:37:53;;;;;;;869.22;808.95;;;;;;;24.18;67.00;100735.53;687128;28;23804;-64
2022/08/20 00:38:15;;;;;;;892.15;831.17;;;;;;;24.18;66.60;100738.28;686353;28;44449;-64
2022/08/20 00:38:37;;;;;;;921.08;859.22;;;;;;;24.18;66.61;100738.28;686285;28;46325;-64
2022/08/20 00:38:59;;;;;;;934.70;872.40;;;;;;;24.18;66.88;100735.53;686395;28;46298;-64
2022/08/20 00:39:22;;;;;;;919.85;858.08;;;;;;;24.17;66.64;100739.41;684244;28;45222;-64
2022/08/20 00:39:44;;;;;;;935.15;872.90;;;;;;;24.18;66.47;100738.28;682298;28;92213;-64
2022/08/20 00:40:07;;;;;;;927.00;864.92;;;;;;;24.17;67.04;100733.88;684541;28;21543;-64
2022/08/20 00:40:31;;;;;;;920.90;859.17;;;;;;;24.17;66.47;100735.78;682953;28;69315;-64
2022/08/20 00:40:56;;;;;;;912.70;851.15;;;;;;;24.16;66.44;100740.50;681553;28;114883;-64
2022/08/20 00:41:20;;;;;;;934.10;871.88;;;;;;;24.16;67.01;100731.41;681452;28;115028;-64
2022/08/20 00:41:42;;;;;;;926.22;864.30;;;;;;;24.18;66.41;100740.22;680857;28;115293;-64
2022/08/20 00:42:03;;;;;;;910.90;849.38;;;;;;;24.18;66.57;100738.28;687202;28;22395;-64
2022/08/20 00:42:25;;;;;;;910.53;849.00;;;;;;;24.18;66.54;100740.22;687259;28;22361;-64
2022/08/20 00:42:50;;;;;;;943.92;881.33;;;;;;;24.19;66.78;100737.19;687437;28;44121;-64
2022/08/20 00:43:29;;;;;;;926.65;864.60;;;;;;;24.19;66.46;100739.97;686794;28;115175;-64
2022/08/20 00:43:52;;;;;;;927.80;865.67;;;;;;;24.19;66.79;100741.91;685798;28;137520;-63
2022/08/20 00:44:17;;;;;;;915.00;853.30;;;;;;;24.19;67.00;100736.38;689030;28;44369;-64
2022/08/20 00:44:44;;;;;;;912.38;850.78;;;;;;;24.22;66.71;100741.38;686558;28;114925;-64
2022/08/20 00:45:06;;;;;;;909.35;847.90;;;;;;;24.22;66.49;100750.47;685858;28;138065;-64
2022/08/20 00:45:30;;;;;;;918.30;856.50;;;;;;;24.22;66.88;100742.19;689169;28;43892;-64
2022/08/20 00:45:55;;;;;;;904.35;843.00;;;;;;;24.21;66.96;100737.75;688195;28;67514;-64
2022/08/20 00:46:23;;;;;;;910.50;848.97;;;;;;;24.23;66.83;100743.00;686715;28;116012;-64
2022/08/20 00:46:45;;;;;;;943.40;880.75;;;;;;;24.24;66.30;100742.72;685065;28;137960;-64
2022/08/20 00:47:08;;;;;;;912.78;851.00;;;;;;;24.24;66.78;100741.91;688568;28;44037;-64
2022/08/20 00:47:29;;;;;;;910.45;848.85;;;;;;;24.24;66.64;100744.69;688359;28;65464;-64
2022/08/20 00:47:50;;;;;;;924.40;862.38;;;;;;;24.25;66.18;100749.94;689555;28;22761;-64
2022/08/20 00:48:11;;;;;;;925.67;863.65;;;;;;;24.24;66.33;100742.72;689721;28;21536;-64
2022/08/20 00:48:34;;;;;;;929.33;867.20;;;;;;;24.24;66.79;100745.50;689775;28;22371;-64
2022/08/20 00:48:57;;;;;;;915.40;853.67;;;;;;;24.25;66.28;100749.09;687131;28;90514;-64
2022/08/20 00:49:21;;;;;;;916.10;854.40;;;;;;;24.22;66.57;100742.19;688828;28;44388;-64
2022/08/20 00:49:44;;;;;;;903.65;842.35;;;;;;;24.24;66.54;100745.50;687362;28;90140;-64
2022/08/20 00:50:06;;;;;;;898.40;837.25;;;;;;;24.24;66.55;100739.97;688262;28;70419;-64
2022/08/20 00:50:32;;;;;;;900.42;839.22;;;;;;;24.25;66.23;100744.41;689093;28;46402;-63
2022/08/20 00:50:56;;;;;;;921.10;859.25;;;;;;;24.26;66.53;100750.75;685664;28;136384;-64
2022/08/20 00:51:37;;;;;;;934.15;871.85;;;;;;;24.26;66.64;100748.00;688326;28;69411;-64
2022/08/20 00:52:02;;;;;;;964.03;900.70;;;;;;;24.26;66.69;100746.09;682733;28;137186;-64
2022/08/20 00:52:23;;;;;;;938.22;875.75;;;;;;;24.26;66.06;100740.56;683950;28;115869;-64
2022/08/20 00:52:47;;;;;;;925.33;863.30;;;;;;;24.26;66.20;100739.72;686494;28;22877;-64
2022/08/20 00:53:08;;;;;;;919.40;857.53;;;;;;;24.25;66.45;100740.81;684412;28;92251;-64
2022/08/20 00:53:31;;;;;;;905.30;844.00;;;;;;;24.26;66.36;100745.22;687032;28;23456;-64
2022/08/20 00:53:55;;;;;;;918.88;857.03;;;;;;;24.26;66.14;100743.31;684697;28;69391;-64
2022/08/20 00:54:20;;;;;;;925.08;863.08;;;;;;;24.27;66.38;100741.38;682079;28;90373;-64
2022/08/20 00:54:46;;;;;;;910.63;849.08;;;;;;;24.26;66.63;100743.31;684906;28;60737;-64
2022/08/20 00:55:08;;;;;;;904.72;843.33;;;;;;;24.27;66.13;100742.19;683651;28;115059;-64
2022/08/20 00:55:31;;;;;;;921.25;859.35;;;;;;;24.27;66.58;100742.19;686242;28;46405;-64
2022/08/20 00:55:53;;;;;;;929.03;866.90;;;;;;;24.25;66.67;100738.88;685388;28;69211;-64
2022/08/20 00:56:14;;;;;;;940.95;878.45;;;;;;;24.27;66.26;100750.47;686103;28;46162;-64
2022/08/20 00:56:36;;;;;;;925.50;863.53;;;;;;;24.27;66.63;100742.19;685722;28;21493;-64
2022/08/20 00:57:02;;;;;;;909.40;847.85;;;;;;;24.29;66.19;100744.69;682619;28;46425;-64
2022/08/20 00:57:25;;;;;;;917.42;855.55;;;;;;;24.29;66.50;100750.22;680383;28;138403;-64
2022/08/20 00:57:53;;;;;;;938.75;876.30;;;;;;;24.29;66.59;100741.94;682974;28;69443;-64
2022/08/20 00:58:14;;;;;;;953.47;890.50;;;;;;;24.29;66.26;100737.25;680605;28;138205;-64
2022/08/20 00:58:36;;;;;;;927.90;865.78;;;;;;;24.29;66.51;100742.78;684480;28;21517;-64
2022/08/20 00:58:58;;;;;;;932.25;869.95;;;;;;;24.30;66.51;100743.59;683677;28;44185;-64
2022/08/20 00:59:22;;;;;;;919.08;857.25;;;;;;;24.29;65.99;100741.94;683577;28;46292;-64
2022/08/20 00:59:43;;;;;;;922.63;860.67;;;;;;;24.30;66.17;100749.13;682059;28;93363;-64
2022/08/20 01:00:09;;;;;;;905.25;843.80;;;;;;;24.30;65.92;100743.59;683745;28;44382;-64
2022/08/20 01:00:36;;;;;;;904.42;843.03;;;;;;;24.28;66.23;100745.81;681659;28;136549;-64
2022/08/20 01:00:58;;;;;;;913.58;851.88;;;;;;;24.29;65.99;100744.69;683309;28;138799;-64
2022/08/20 01:01:21;;;;;;;953.55;890.53;;;;;;;24.29;66.28;100748.31;686320;28;46403;-64
2022/08/20 01:01:43;;;;;;;935.08;872.72;;;;;;;24.29;66.49;100748.31;685081;28;70128;-64
2022/08/20 01:02:08;;;;;;;923.30;861.30;;;;;;;24.29;66.04;100747.44;688573;28;44508;-64
2022/08/20 01:02:30;;;;;;;923.38;861.38;;;;;;;24.26;66.31;100748.84;686645;28;116685;-64
2022/08/20 01:02:52;;;;;;;936.00;873.60;;;;;;;24.28;66.20;100743.06;689115;28;45254;-64
2022/08/20 01:03:18;;;;;;;940.38;877.92;;;;;;;24.27;66.36;100750.47;689129;28;46203;-65
2022/08/20 01:03:41;;;;;;;914.60;852.92;;;;;;;24.28;66.63;100751.31;685812;28;137824;-64
2022/08/20 01:04:02;;;;;;;948.75;885.95;;;;;;;24.29;66.09;100748.31;688127;28;69206;-64
2022/08/20 01:04:25;;;;;;;946.00;883.40;;;;;;;24.28;66.33;100745.81;689995;28;22374;-64
2022/08/20 01:04:49;;;;;;;922.30;860.45;;;;;;;24.29;66.09;100736.41;688211;28;69405;-64
2022/08/20 01:05:11;;;;;;;926.08;863.97;;;;;;;24.28;66.17;100743.88;687458;28;92370;-64
2022/08/20 01:05:32;;;;;;;916.90;855.08;;;;;;;24.28;66.35;100749.38;688861;28;45071;-64
2022/08/20 01:05:53;;;;;;;906.35;844.88;;;;;;;24.28;66.60;100749.38;689888;28;21213;-64
2022/08/20 01:06:15;;;;;;;962.92;899.63;;;;;;;24.28;66.49;100751.31;689862;28;21515;-64
2022/08/20 01:06:37;;;;;;;941.45;878.90;;;;;;;24.27;66.81;100747.72;689058;28;46350;-64
2022/08/20 01:06:58;;;;;;;925.42;863.33;;;;;;;24.28;66.83;100749.38;685406;28;46671;-64
2022/08/20 01:07:21;;;;;;;930.60;868.33;;;;;;;24.28;66.50;100748.56;687117;28;22401;-64
2022/08/20 01:07:44;;;;;;;926.95;864.90;;;;;;;24.27;66.34;100744.97;685333;28;69536;-64
2022/08/20 01:08:06;;;;;;;951.15;888.38;;;;;;;24.27;67.02;100746.91;685612;28;67490;-64
2022/08/20 01:08:27;;;;;;;919.30;857.60;;;;;;;24.27;66.63;100744.13;686390;28;46346;-64
2022/08/20 01:08:48;;;;;;;919.10;857.35;;;;;;;24.28;66.76;100751.31;687245;28;22377;-64
2022/08/20 01:09:10;;;;;;;912.17;850.67;;;;;;;24.27;67.11;100750.47;686368;28;21659;-64
2022/08/20 01:09:33;;;;;;;917.42;855.80;;;;;;;24.25;66.89;100743.59;686223;28;44389;-64
2022/08/20 01:09:55;;;;;;;915.10;853.53;;;;;;;24.26;66.91;100745.22;682509;28;67766;-64
2022/08/20 01:10:19;;;;;;;913.08;851.58;;;;;;;24.26;67.22;100750.75;683563;28;46275;-64
2022/08/20 01:10:43;;;;;;;911.17;849.78;;;;;;;24.26;67.25;100751.59;681870;28;92260;-64
2022/08/20 01:11:11;;;;;;;904.60;843.40;;;;;;;24.26;67.00;100742.47;680728;28;93356;-64
2022/08/20 01:11:33;;;;;;;907.03;845.72;;;;;;;24.28;66.89;100748.56;680342;28;137835;-64
2022/08/20 01:11:54;;;;;;;893.88;832.92;;;;;;;24.26;66.91;100750.75;684695;28;45245;-64
2022/08/20 01:12:16;;;;;;;912.05;850.40;;;;;;;24.27;67.30;100750.47;686830;28;21575;-64
2022/08/20 01:12:39;;;;;;;930.58;868.38;;;;;;;24.26;67.33;100748.84;685274;28;46308;-64
2022/08/20 01:13:07;;;;;;;949.42;886.65;;;;;;;24.25;67.61;100752.69;685205;28;69536;-64
2022/08/20 01:13:30;;;;;;;936.70;874.42;;;;;;;24.23;67.68;100745.75;680641;28;137802;-64
2022/08/20 01:13:51;;;;;;;913.70;852.15;;;;;;;24.25;67.20;100749.09;682827;28;67476;-64
2022/08/20 01:14:27;;;;;;;918.97;857.22;;;;;;;24.24;67.23;100751.00;686178;28;21577;-64
2022/08/20 01:14:48;;;;;;;917.53;855.83;;;;;;;24.27;67.53;100752.41;682376;28;160253;-64
2022/08/20 01:15:12;;;;;;;905.67;844.38;;;;;;;24.26;67.15;100751.59;686190;28;44367;-64
2022/08/20 01:15:33;;;;;;;900.33;839.13;;;;;;;24.26;67.13;100754.34;684769;28;90731;-64
2022/08/20 01:15:55;;;;;;;905.92;844.58;;;;;;;24.27;67.61;100755.19;687034;28;23423;-64
2022/08/20 01:16:21;;;;;;;901.47;840.28;;;;;;;24.26;67.36;100748.84;686015;28;45347;-64
2022/08/20 01:16:43;;;;;;;912.55;851.00;;;;;;;24.26;67.30;100754.34;682385;28;138500;-64
2022/08/20 01:17:07;;;;;;;905.53;844.07;;;;;;;24.25;67.59;100751.88;685777;28;45259;-64
2022/08/20 01:17:32;;;;;;;936.28;873.88;;;;;;;24.25;67.68;100752.69;684490;28;92200;-64
2022/08/20 01:17:57;;;;;;;902.72;841.55;;;;;;;24.26;67.38;100753.50;683073;28;137763;-64
2022/08/20 01:18:23;;;;;;;908.00;846.55;;;;;;;24.25;67.29;100763.72;683974;28;115104;-64
2022/08/20 01:18:47;;;;;;;940.85;878.40;;;;;;;24.23;67.59;100754.03;683331;28;136776;-64
2022/08/20 01:19:10;;;;;;;926.42;864.45;;;;;;;24.24;67.86;100748.25;685609;28;69414;-64
2022/08/20 01:19:35;;;;;;;939.17;876.85;;;;;;;24.24;67.48;100759.28;683999;28;92357;-64
2022/08/20 01:19:58;;;;;;;934.88;872.65;;;;;;;24.24;67.76;100750.19;683761;28;114912;-64
2022/08/20 01:20:22;;;;;;;905.35;844.08;;;;;;;24.23;67.93;100754.91;685286;28;69434;-64
2022/08/20 01:20:49;;;;;;;925.72;863.83;;;;;;;24.24;67.39;100758.47;684470;28;92415;-64
2022/08/20 01:21:10;;;;;;;936.20;873.90;;;;;;;24.23;67.93;100748.53;683116;28;138028;-64
2022/08/20 01:21:33;;;;;;;918.63;856.95;;;;;;;24.24;67.74;100752.94;687649;28;23554;-64
2022/08/20 01:21:54;;;;;;;907.70;846.33;;;;;;;24.24;68.03;100752.94;686054;28;46395;-64
2022/08/20 01:23:54;;;;;;;910.28;848.90;;;;;;;24.20;68.12;100751.81;683385;28;137135;-64
2022/08/20 01:24:20;;;;;;;923.70;861.80;;;;;;;24.17;68.11;100755.97;683407;28;136056;-64
2022/08/20 01:24:42;;;;;;;894.42;833.53;;;;;;;24.17;67.78;100753.19;683481;28;137866;-64
2022/08/20 01:25:09;;;;;;;901.83;840.70;;;;;;;24.15;67.58;100743.53;685845;28;69479;-64
2022/08/20 01:25:46;;;;;;;939.45;877.05;;;;;;;24.16;68.35;100748.78;683684;28;61062;-64
2022/08/20 01:26:10;;;;;;;917.28;855.63;;;;;;;24.18;67.76;100748.50;680247;28;161127;-64
2022/08/20 01:26:35;;;;;;;903.28;842.03;;;;;;;24.18;68.48;100754.03;681786;28;115150;-64
2022/08/20 01:27:00;;;;;;;917.88;856.17;;;;;;;24.16;68.09;100746.00;680460;28;137977;-64
2022/08/20 01:27:21;;;;;;;920.43;858.67;;;;;;;24.17;67.95;100752.34;684345;28;115214;-64
2022/08/20 01:27:43;;;;;;;900.40;839.33;;;;;;;24.17;68.25;100749.59;686913;28;44381;-64
2022/08/20 01:28:06;;;;;;;910.20;848.78;;;;;;;24.17;68.06;100749.59;686759;28;46521;-64
2022/08/20 01:28:32;;;;;;;941.58;879.17;;;;;;;24.17;68.20;100755.09;686599;28;44359;-64
2022/08/20 01:28:55;;;;;;;911.95;850.50;;;;;;;24.16;68.00;100754.28;680759;28;137469;-64
2022/08/20 01:29:20;;;;;;;909.55;848.17;;;;;;;24.16;68.25;100753.47;682317;28;91789;-64
2022/08/20 01:29:42;;;;;;;928.17;866.17;;;;;;;24.15;68.47;100747.09;681485;28;115376;-64
2022/08/20 01:30:04;;;;;;;935.35;873.17;;;;;;;24.13;67.95;100748.50;686657;28;22229;-64
2022/08/20 01:30:27;;;;;;;902.70;841.53;;;;;;;24.15;68.07;100749.88;685751;28;67259;-64
2022/08/20 01:30:49;;;;;;;904.45;843.20;;;;;;;24.14;68.44;100756.50;685842;28;69711;-64
2022/08/20 01:31:14;;;;;;;885.42;824.72;;;;;;;24.15;68.48;100754.56;687442;28;21474;-64
2022/08/20 01:31:37;;;;;;;908.55;847.10;;;;;;;24.13;68.46;100754.81;683786;28;138961;-64
2022/08/20 01:32:00;;;;;;;945.90;883.30;;;;;;;24.13;67.90;100745.72;684490;28;92180;-64
2022/08/20 01:32:21;;;;;;;931.88;869.67;;;;;;;24.10;68.27;100747.09;686831;28;45236;-64
2022/08/20 01:32:43;;;;;;;932.42;870.22;;;;;;;24.10;68.11;100756.19;686774;28;46245;-64
2022/08/20 01:33:05;;;;;;;911.88;850.33;;;;;;;24.10;68.29;100745.16;686703;28;44367;-64
2022/08/20 01:33:26;;;;;;;910.70;849.13;;;;;;;24.08;68.20;100750.09;687471;28;22310;-64
2022/08/20 01:33:49;;;;;;;925.15;863.22;;;;;;;24.08;68.51;100749.28;687648;28;23435;-64
2022/08/20 01:34:12;;;;;;;946.28;883.63;;;;;;;24.07;68.68;100748.44;686112;28;69649;-64
2022/08/20 01:34:34;;;;;;;904.63;843.33;;;;;;;24.06;68.32;100757.84;685171;28;92277;-64
2022/08/20 01:34:55;;;;;;;926.72;864.72;;;;;;;24.05;68.46;100758.09;687309;28;23483;-64
2022/08/20 01:35:18;;;;;;;951.58;888.67;;;;;;;24.03;68.33;100752.84;687297;28;22234;-64
2022/08/20 01:35:41;;;;;;;926.88;864.83;;;;;;;24.02;68.75;100751.19;685871;28;67439;-64
2022/08/20 01:36:04;;;;;;;926.13;864.13;;;;;;;24.02;68.69;100755.88;685004;28;90340;-64
2022/08/20 01:36:30;;;;;;;952.25;889.38;;;;;;;24.02;68.79;100742.06;685751;28;69423;-64
2022/08/20 01:36:54;;;;;;;922.53;860.72;;;;;;;24.02;68.87;100753.13;683554;28;115929;-64
2022/08/20 01:37:15;;;;;;;915.53;853.72;;;;;;;24.01;68.87;100749.53;684832;28;90753;-64
2022/08/20 01:37:36;;;;;;;920.58;858.70;;;;;;;24.01;69.15;100752.28;686646;28;46285;-64
2022/08/20 01:37:58;;;;;;;953.83;890.85;;;;;;;24.02;69.31;100756.69;687624;28;22396;-64
2022/08/20 01:38:20;;;;;;;962.15;898.95;;;;;;;24.01;68.85;100748.69;688367;28;913;-64
2022/08/20 01:38:42;;;;;;;926.65;864.67;;;;;;;24.02;69.34;100750.34;686810;28;47183;-64
2022/08/20 01:39:07;;;;;;;910.80;849.33;;;;;;;24.01;69.15;100749.53;687959;28;23412;-64
2022/08/20 01:39:32;;;;;;;910.17;848.72;;;;;;;23.99;68.87;100751.72;686421;28;138441;-64
2022/08/20 01:39:53;;;;;;;933.83;871.58;;;;;;;23.98;69.34;100749.22;686274;28;137241;-64
2022/08/20 01:40:23;;;;;;;930.65;868.45;;;;;;;23.97;69.00;100748.41;690371;28;22169;-64
2022/08/20 01:41:08;;;;;;;956.88;893.83;;;;;;;23.98;69.10;100751.97;680857;28;137868;-64
2022/08/20 01:41:40;;;;;;;918.80;857.05;;;;;;;23.98;69.17;100747.31;681122;28;135530;-64
2022/08/20 01:42:07;;;;;;;915.58;853.97;;;;;;;23.97;69.02;100748.41;682534;28;158053;-64
2022/08/20 01:42:33;;;;;;;914.58;852.97;;;;;;;23.93;69.28;100741.75;686150;28;137780;-64
2022/08/20 01:42:55;;;;;;;914.63;852.90;;;;;;;23.97;69.46;100753.09;686012;28;137851;-64
2022/08/20 01:43:16;;;;;;;923.38;861.38;;;;;;;23.97;69.61;100753.09;690048;28;21523;-64
2022/08/20 01:43:39;;;;;;;943.70;881.15;;;;;;;23.97;69.15;100748.41;689255;28;44390;-64
2022/08/20 01:44:01;;;;;;;926.15;864.13;;;;;;;23.98;68.98;100747.31;689493;28;46342;-64
2022/08/20 01:44:22;;;;;;;935.47;873.17;;;;;;;23.98;69.43;100750.06;689539;28;46319;-64
2022/08/20 01:44:45;;;;;;;948.05;885.30;;;;;;;23.99;69.48;100750.88;689436;28;46316;-64
2022/08/20 01:45:07;;;;;;;919.63;857.78;;;;;;;23.94;69.13;100743.41;688550;28;67600;-64
2022/08/20 01:45:29;;;;;;;941.58;879.03;;;;;;;23.98;69.08;100743.69;689494;28;46156;-64
2022/08/20 01:45:51;;;;;;;926.20;864.17;;;;;;;24.00;69.32;100744.28;690296;28;23342;-64